Time;durP1;ratioP1;P1;durP2;ratioP2;P2;SDS_P1;SDS_P2;PMS_P1;PMS_P2;Temp;Humidity;BMP_temperature;BMP_pressure;BME280_temperature;BME280_humidity;BME280_pressure;Samples;Min_cycle;Max_cycle;Signal;HPM_P1;HPM_P2
2024/01/01 00:02:17;;;;;;;31.80;13.98;;;;;;;9.09;92.94;99771.47;10363580;28;20383;-59
2024/01/01 00:07:39;;;;;;;20.95;11.45;;;;;;;9.09;92.71;99767.16;10346415;28;20120;-59
2024/01/01 00:13:01;;;;;;;18.08;9.00;;;;;;;9.02;92.91;99763.16;10355300;28;20524;-60
2024/01/01 00:18:23;;;;;;;17.95;8.23;;;;;;;9.02;93.98;99770.91;10346678;28;20060;-59
2024/01/01 00:23:45;;;;;;;16.25;7.43;;;;;;;9.03;93.96;99759.66;10345298;28;20061;-59
2024/01/01 00:29:09;;;;;;;14.45;6.43;;;;;;;9.07;93.30;99761.22;10358026;28;20057;-60
2024/01/01 00:34:46;;;;;;;13.98;5.80;;;;;;;9.12;91.96;99764.44;10369780;28;20054;-58
2024/01/01 00:40:09;;;;;;;12.70;6.10;;;;;;;9.02;92.77;99752.84;10367810;28;20058;-59
2024/01/01 00:45:30;;;;;;;11.23;4.72;;;;;;;8.99;92.12;99747.78;10380564;28;20570;-60
2024/01/01 00:51:04;;;;;;;11.93;4.50;;;;;;;8.93;92.84;99753.22;10356939;28;20763;-60
2024/01/01 00:56:26;;;;;;;10.77;4.22;;;;;;;8.93;91.96;99755.81;10401106;28;20070;-60
2024/01/01 01:01:49;;;;;;;14.23;4.25;;;;;;;8.96;92.20;99760.81;10378165;28;20048;-58
2024/01/01 01:07:11;;;;;;;15.52;4.50;;;;;;;8.87;91.96;99753.47;10412835;28;20404;-59
2024/01/01 01:12:33;;;;;;;17.13;5.03;;;;;;;8.86;92.55;99767.25;10373410;28;20141;-59
2024/01/01 01:17:56;;;;;;;11.25;4.10;;;;;;;8.86;92.64;99762.09;10379781;28;20046;-59
2024/01/01 01:23:18;;;;;;;13.90;4.20;;;;;;;8.89;92.65;99754.25;10364190;28;20511;-59
2024/01/01 01:28:40;;;;;;;12.32;4.72;;;;;;;8.96;92.09;99767.72;10402313;28;20071;-59
2024/01/01 01:34:02;;;;;;;14.50;4.57;;;;;;;9.00;91.86;99759.81;10383177;28;20056;-59
2024/01/01 01:39:23;;;;;;;15.45;5.15;;;;;;;9.06;91.56;99764.69;10373879;28;20058;-60
2024/01/01 01:44:46;;;;;;;10.00;4.20;;;;;;;9.08;91.38;99768.06;10357092;28;20049;-58
2024/01/01 01:50:08;;;;;;;15.13;5.00;;;;;;;9.09;91.65;99763.75;10388517;28;20074;-60
2024/01/01 01:55:30;;;;;;;15.48;5.22;;;;;;;9.07;92.25;99765.53;10370899;28;20173;-60
2024/01/01 02:00:54;;;;;;;16.35;5.53;;;;;;;9.12;91.49;99758.44;10367022;28;20053;-59
2024/01/01 02:06:16;;;;;;;17.02;5.00;;;;;;;9.17;91.12;99755.69;10364296;28;20653;-59
2024/01/01 02:11:38;;;;;;;10.45;4.93;;;;;;;9.13;91.32;99761.00;10370021;28;20053;-60
2024/01/01 02:17:00;;;;;;;15.45;5.28;;;;;;;9.20;91.14;99748.66;10399624;28;20060;-61
2024/01/01 02:22:22;;;;;;;15.80;4.80;;;;;;;9.23;90.83;99755.44;10391039;28;20466;-59
2024/01/01 02:27:44;;;;;;;14.77;4.95;;;;;;;9.20;90.95;99752.97;10373150;28;20508;-59
2024/01/01 02:33:07;;;;;;;13.57;5.13;;;;;;;9.23;90.46;99750.28;10374462;28;20403;-59
2024/01/01 02:38:31;;;;;;;;;;;;;;;9.24;89.96;99754.53;10394060;28;20050;-58
2024/01/01 02:43:53;;;;;;;12.80;4.57;;;;;;;9.26;89.58;99750.13;10393728;28;19927;-59
2024/01/01 02:49:15;;;;;;;13.23;4.05;;;;;;;9.29;89.68;99744.84;10394919;28;20453;-60
2024/01/01 02:54:37;;;;;;;12.70;4.75;;;;;;;9.24;90.65;99759.69;10379862;28;20164;-60
2024/01/01 02:59:58;;;;;;;16.73;5.30;;;;;;;9.30;89.19;99762.03;10377767;28;20053;-58
2024/01/01 03:05:25;;;;;;;16.00;5.22;;;;;;;9.38;88.51;99765.94;10359510;28;20065;-59
2024/01/01 03:10:48;;;;;;;16.80;5.80;;;;;;;9.31;88.98;99761.09;10385466;28;20065;-59
2024/01/01 03:16:10;;;;;;;15.40;6.25;;;;;;;9.33;88.97;99748.97;10349258;28;20064;-61
2024/01/01 03:21:32;;;;;;;16.95;6.93;;;;;;;9.36;88.20;99766.94;10356361;28;20041;-60
2024/01/01 03:26:56;;;;;;;20.33;7.60;;;;;;;9.42;87.53;99762.34;10377982;28;21224;-60
2024/01/01 03:32:19;;;;;;;18.75;7.68;;;;;;;9.39;88.03;99752.16;10355364;28;20044;-59
2024/01/01 03:37:48;;;;;;;20.00;8.30;;;;;;;9.37;87.74;99759.13;10372258;28;20084;-60
2024/01/01 03:43:10;;;;;;;20.60;8.70;;;;;;;9.41;87.10;99754.66;10347935;28;20072;-59
2024/01/01 03:48:31;;;;;;;23.92;9.00;;;;;;;9.44;87.21;99750.19;10358601;28;20065;-59
2024/01/01 03:53:54;;;;;;;21.15;8.50;;;;;;;9.43;87.30;99765.75;10356948;28;20053;-60
2024/01/01 03:59:16;;;;;;;19.33;8.25;;;;;;;9.42;86.59;99746.84;10339575;28;20104;-59
2024/01/01 04:04:37;;;;;;;22.40;9.60;;;;;;;9.40;87.07;99763.28;10349453;28;20053;-60
2024/01/01 04:09:59;;;;;;;17.73;8.75;;;;;;;9.41;86.52;99759.81;10359057;28;20534;-60
2024/01/01 04:15:21;;;;;;;16.88;8.48;;;;;;;9.46;86.42;99761.31;10340323;28;20045;-60
2024/01/01 04:20:42;;;;;;;16.83;7.32;;;;;;;9.41;86.52;99760.69;10361897;28;20160;-59
2024/01/01 04:26:04;;;;;;;17.45;6.57;;;;;;;9.43;86.51;99752.84;10362142;28;20045;-59
2024/01/01 04:31:26;;;;;;;14.57;5.95;;;;;;;9.44;85.97;99755.38;10344956;28;20050;-59
2024/01/01 04:36:47;;;;;;;14.45;5.95;;;;;;;9.43;86.49;99769.16;10346697;28;20068;-59
2024/01/01 04:42:09;;;;;;;9.85;5.05;;;;;;;9.40;87.78;99753.81;10375638;28;20045;-59
2024/01/01 04:47:31;;;;;;;11.68;4.85;;;;;;;9.22;89.01;99744.28;10330944;28;20061;-60
2024/01/01 04:52:52;;;;;;;17.77;4.90;;;;;;;9.16;90.01;99759.19;10350358;28;20096;-59
2024/01/01 04:58:14;;;;;;;12.00;5.40;;;;;;;9.13;89.49;99755.81;10375210;28;20482;-59
2024/01/01 05:03:36;;;;;;;8.50;3.60;;;;;;;9.09;89.40;99764.59;10340478;28;20046;-59
2024/01/01 05:08:57;;;;;;;9.00;3.25;;;;;;;9.08;88.71;99762.91;10348741;28;20135;-59
2024/01/01 05:14:19;;;;;;;8.18;2.25;;;;;;;9.01;89.23;99770.94;10373862;28;20050;-59
2024/01/01 05:19:41;;;;;;;9.15;2.03;;;;;;;8.94;89.88;99765.22;10354274;28;20061;-59
2024/01/01 05:25:03;;;;;;;5.85;1.88;;;;;;;8.85;90.93;99763.00;10343624;28;20118;-60
2024/01/01 05:30:27;;;;;;;11.27;1.75;;;;;;;8.77;91.55;99775.34;10374141;28;20068;-60
2024/01/01 05:35:49;;;;;;;10.90;1.73;;;;;;;8.72;91.90;99790.19;10388118;28;20486;-60
2024/01/01 05:41:11;;;;;;;6.65;1.55;;;;;;;8.62;93.32;99778.56;10354442;28;20042;-59
2024/01/01 05:46:33;;;;;;;6.90;1.30;;;;;;;8.60;93.44;99785.50;10366148;28;20433;-60
2024/01/01 05:51:55;;;;;;;8.43;1.40;;;;;;;8.53;94.69;99775.50;10354443;28;20104;-59
2024/01/01 05:57:17;;;;;;;6.25;1.70;;;;;;;8.45;95.78;99783.50;10358246;28;20061;-59
2024/01/01 06:02:39;;;;;;;7.22;1.65;;;;;;;8.43;97.01;99779.31;10353430;28;20048;-59
2024/01/01 06:08:02;;;;;;;7.75;1.85;;;;;;;8.41;97.36;99794.00;10356074;28;20058;-60
2024/01/01 06:13:25;;;;;;;6.88;1.92;;;;;;;8.38;98.06;99794.13;10380128;28;20045;-59
2024/01/01 06:18:47;;;;;;;8.95;2.17;;;;;;;8.37;99.76;99803.56;10351531;28;20080;-60
2024/01/01 06:24:08;;;;;;;7.63;1.95;;;;;;;8.32;100.00;99800.34;10357269;28;20049;-60
2024/01/01 06:29:30;;;;;;;10.65;2.30;;;;;;;8.29;100.00;99807.34;10349091;28;20045;-59
2024/01/01 06:34:52;;;;;;;10.13;2.25;;;;;;;8.21;100.00;99807.59;10361088;28;20053;-59
2024/01/01 06:40:14;;;;;;;7.53;2.42;;;;;;;8.19;100.00;99809.38;10370668;28;20053;-60
2024/01/01 06:45:35;;;;;;;9.93;2.55;;;;;;;8.14;100.00;99816.44;10374144;28;20050;-60
2024/01/01 06:50:57;;;;;;;11.38;2.30;;;;;;;8.11;100.00;99832.03;10366974;28;20417;-60
2024/01/01 06:56:18;;;;;;;10.95;2.10;;;;;;;8.05;100.00;99821.94;10375321;28;20042;-61
2024/01/01 07:01:42;;;;;;;9.65;2.20;;;;;;;8.01;100.00;99817.78;10363052;28;20059;-59
2024/01/01 07:07:04;;;;;;;14.82;2.40;;;;;;;7.99;100.00;99833.28;10361581;28;20064;-60
2024/01/01 07:12:28;;;;;;;13.43;2.08;;;;;;;8.02;100.00;99843.47;10359271;28;20057;-61
2024/01/01 07:17:51;;;;;;;12.48;2.33;;;;;;;7.99;100.00;99842.75;10374125;28;20089;-59
2024/01/01 07:23:14;;;;;;;10.10;2.30;;;;;;;7.98;100.00;99852.22;10362261;28;20045;-62
2024/01/01 07:28:36;;;;;;;13.77;2.33;;;;;;;7.98;100.00;99859.94;10371452;28;20058;-59
2024/01/01 07:33:57;;;;;;;9.50;2.30;;;;;;;7.97;100.00;99865.16;10348726;28;20128;-59
2024/01/01 07:39:23;;;;;;;12.57;2.42;;;;;;;7.95;100.00;99851.47;10356133;28;20084;-60
2024/01/01 07:44:45;;;;;;;16.02;2.47;;;;;;;7.98;100.00;99862.50;10377012;28;20103;-59
2024/01/01 07:50:07;;;;;;;12.25;1.90;;;;;;;8.01;100.00;99866.72;10375515;28;20041;-60
2024/01/01 07:55:29;;;;;;;15.70;2.58;;;;;;;8.02;100.00;99868.44;10360857;28;20128;-61
2024/01/01 08:00:51;;;;;;;16.17;2.38;;;;;;;8.06;100.00;99864.81;10342232;28;20521;-59
2024/01/01 08:06:13;;;;;;;11.45;2.20;;;;;;;8.07;100.00;99872.53;10352339;28;20099;-58
2024/01/01 08:11:35;;;;;;;13.90;2.10;;;;;;;8.06;100.00;99873.41;10381759;28;20053;-59
2024/01/01 08:16:56;;;;;;;11.50;2.20;;;;;;;8.10;100.00;99876.69;10348987;28;20072;-60
2024/01/01 08:22:20;;;;;;;11.48;2.25;;;;;;;8.11;100.00;99880.97;10341334;28;20049;-64
2024/01/01 08:27:42;;;;;;;13.90;2.03;;;;;;;8.12;100.00;99886.06;10344894;28;20735;-59
2024/01/01 08:33:05;;;;;;;10.95;2.58;;;;;;;8.18;100.00;99890.97;10357599;28;20050;-60
2024/01/01 08:38:26;;;;;;;7.53;2.10;;;;;;;8.20;100.00;99898.69;10358080;28;20401;-60
2024/01/01 08:43:56;;;;;;;9.32;1.80;;;;;;;8.23;100.00;99897.72;10342191;28;24574;-60
2024/01/01 08:49:18;;;;;;;12.18;2.10;;;;;;;8.26;100.00;99892.50;10346458;28;20203;-61
2024/01/01 08:54:40;;;;;;;11.43;1.98;;;;;;;8.30;100.00;99907.78;10328857;28;20053;-59
2024/01/01 09:00:12;;;;;;;9.60;2.10;;;;;;;8.36;100.00;99909.31;10333928;28;20403;-61
2024/01/01 09:05:36;;;;;;;11.27;2.35;;;;;;;8.29;100.00;99921.59;10350297;28;20052;-60
2024/01/01 09:10:58;;;;;;;8.98;1.98;;;;;;;8.32;100.00;99930.94;10362203;28;20107;-59
2024/01/01 09:16:20;;;;;;;9.60;2.22;;;;;;;8.30;100.00;99931.00;10358867;28;20077;-60
2024/01/01 09:21:42;;;;;;;7.40;1.63;;;;;;;8.34;100.00;99931.72;10351595;28;20053;-60
2024/01/01 09:27:04;;;;;;;12.75;2.17;;;;;;;8.33;100.00;99940.34;10362326;28;20063;-60
2024/01/01 09:32:26;;;;;;;14.30;2.22;;;;;;;8.37;100.00;99947.91;10366621;28;20438;-60
2024/01/01 09:37:52;;;;;;;9.90;2.10;;;;;;;8.39;100.00;99943.53;10348089;28;20137;-60
2024/01/01 09:43:16;;;;;;;10.50;1.90;;;;;;;8.44;100.00;99944.22;10366026;28;20050;-60
2024/01/01 09:48:41;;;;;;;9.35;1.88;;;;;;;8.49;100.00;99944.91;10354957;28;20046;-60
2024/01/01 09:54:03;;;;;;;12.65;2.20;;;;;;;8.54;100.00;99960.19;10353202;28;20081;-62
2024/01/01 09:59:36;;;;;;;13.88;2.00;;;;;;;8.64;99.93;99970.16;10363645;28;20049;-58
2024/01/01 10:05:15;;;;;;;8.70;1.73;;;;;;;8.67;99.49;99970.03;10355164;28;20193;-60
2024/01/01 10:10:38;;;;;;;8.45;1.50;;;;;;;8.70;99.47;99971.63;10364407;28;20095;-59
2024/01/01 10:16:00;;;;;;;9.15;2.22;;;;;;;8.80;97.93;99973.84;10351029;28;20057;-60
2024/01/01 10:21:30;;;;;;;7.97;1.98;;;;;;;8.77;98.04;99976.53;10375436;28;20520;-59
2024/01/01 10:26:52;;;;;;;7.40;1.52;;;;;;;8.84;97.64;99984.91;10339856;28;20049;-60
2024/01/01 10:32:18;;;;;;;5.60;1.58;;;;;;;8.90;96.49;99995.81;10356094;28;20068;-59
2024/01/01 10:37:42;;;;;;;;;;;;;;;8.90;96.67;99995.00;10374251;28;20045;-60
2024/01/01 10:43:07;;;;;;;6.88;2.15;;;;;;;8.92;96.56;100014.66;10339787;28;19947;-59
2024/01/01 10:48:29;;;;;;;9.95;2.10;;;;;;;8.92;96.46;100004.34;10352605;28;20041;-60
2024/01/01 10:54:01;;;;;;;5.85;1.70;;;;;;;8.94;96.81;100009.44;10379272;28;20577;-60
2024/01/01 10:59:30;;;;;;;9.20;2.10;;;;;;;8.94;96.57;100015.47;10359254;28;22895;-60
2024/01/01 11:05:05;;;;;;;7.53;1.98;;;;;;;9.08;95.58;100022.72;10370601;28;20339;-60
2024/01/01 11:10:42;;;;;;;8.98;2.08;;;;;;;8.97;96.33;100017.91;10354426;28;20088;-59
2024/01/01 11:16:06;;;;;;;9.13;2.00;;;;;;;8.93;97.19;100026.69;10373868;28;20072;-59
2024/01/01 11:21:30;;;;;;;10.25;1.90;;;;;;;8.89;97.81;100029.41;10358016;28;20060;-60
2024/01/01 11:26:52;;;;;;;8.02;1.88;;;;;;;8.84;99.17;100037.34;10364573;28;20056;-59
2024/01/01 11:32:17;;;;;;;10.13;2.20;;;;;;;8.83;99.16;100035.63;10358386;28;20065;-60
2024/01/01 11:37:41;;;;;;;10.23;2.20;;;;;;;8.88;97.50;100046.63;10361395;28;20175;-60
2024/01/01 11:43:06;;;;;;;9.48;2.10;;;;;;;8.87;97.79;100042.38;10368011;28;20045;-59
2024/01/01 11:48:29;;;;;;;7.15;1.67;;;;;;;8.81;97.73;100042.59;10359269;28;20091;-59
2024/01/01 11:54:07;;;;;;;7.40;1.80;;;;;;;8.81;98.56;100045.16;10361503;28;20418;-60
2024/01/01 11:59:29;;;;;;;10.02;1.65;;;;;;;8.86;97.22;100051.00;10358785;28;20081;-59
2024/01/01 12:04:32;;;;;;;8.70;1.88;;;;;;;8.91;97.43;100038.81;10373767;28;20052;-60
2024/01/01 12:09:34;;;;;;;6.70;1.80;;;;;;;8.92;96.84;100044.78;10365687;28;20139;-60
2024/01/01 12:14:35;;;;;;;7.68;1.50;;;;;;;8.91;96.67;100054.28;10378529;28;20406;-60
2024/01/01 12:19:37;;;;;;;8.43;1.50;;;;;;;8.98;95.65;100049.72;10372148;28;20139;-59
2024/01/01 12:24:39;;;;;;;7.45;1.60;;;;;;;8.94;96.26;100059.31;10371668;28;20060;-61
2024/01/01 12:29:50;;;;;;;9.57;1.52;;;;;;;9.04;95.48;100065.84;10373222;28;20057;-59
2024/01/01 12:34:52;;;;;;;7.75;1.67;;;;;;;8.99;96.18;100075.47;10373895;28;20073;-59
2024/01/01 12:39:53;;;;;;;14.00;1.95;;;;;;;8.91;98.04;100072.34;10377987;28;20059;-60
2024/01/01 12:44:56;;;;;;;6.03;1.55;;;;;;;8.87;98.45;100075.06;10389123;28;20767;-59
2024/01/01 12:49:58;;;;;;;9.10;1.63;;;;;;;8.86;98.57;100076.78;10382316;28;20055;-59
2024/01/01 12:55:00;;;;;;;6.80;1.50;;;;;;;8.89;97.88;100092.19;10387852;28;20050;-60
2024/01/01 13:00:07;;;;;;;6.90;1.73;;;;;;;8.93;98.36;100093.75;10372368;28;20056;-60
2024/01/01 13:05:09;;;;;;;8.52;1.80;;;;;;;8.98;97.05;100097.03;10378489;28;20050;-59
2024/01/01 13:10:12;;;;;;;3.75;1.40;;;;;;;9.02;96.64;100103.75;10374188;28;20050;-60
2024/01/01 13:15:38;;;;;;;5.13;1.45;;;;;;;9.03;96.44;100100.28;10372687;28;20590;-59
2024/01/01 13:20:59;;;;;;;8.60;1.75;;;;;;;9.02;95.97;100110.66;10380176;28;20135;-60
2024/01/01 13:26:21;;;;;;;8.80;1.48;;;;;;;9.08;94.44;100107.88;10394424;28;20127;-60
2024/01/01 13:31:43;;;;;;;6.35;1.50;;;;;;;9.12;94.35;100115.44;10368843;28;20056;-60
2024/01/01 13:37:04;;;;;;;4.50;1.08;;;;;;;9.10;94.22;100116.41;10382028;28;20046;-60
2024/01/01 13:42:26;;;;;;;7.25;1.15;;;;;;;9.13;94.20;100108.53;10360003;28;20409;-60
2024/01/01 13:47:48;;;;;;;4.82;1.10;;;;;;;9.12;94.54;100102.53;10366679;28;20144;-60
2024/01/01 13:53:10;;;;;;;7.82;1.58;;;;;;;9.17;94.19;100111.84;10369398;28;20422;-60
2024/01/01 13:58:32;;;;;;;9.77;1.95;;;;;;;9.11;94.38;100118.06;10375351;28;20050;-59
2024/01/01 14:03:54;;;;;;;5.95;1.58;;;;;;;9.09;95.20;100127.59;10373821;28;20053;-58
2024/01/01 14:09:15;;;;;;;5.55;1.45;;;;;;;9.00;98.59;100141.69;10372539;28;20058;-60
2024/01/01 14:14:43;;;;;;;9.30;1.83;;;;;;;8.88;99.10;100151.56;10385442;28;20089;-60
2024/01/01 14:20:05;;;;;;;6.35;1.60;;;;;;;8.69;100.00;100164.25;10375681;28;20084;-60
2024/01/01 14:25:27;;;;;;;9.65;1.95;;;;;;;8.58;100.00;100173.22;10358701;28;20190;-60
2024/01/01 14:30:52;;;;;;;9.02;1.90;;;;;;;8.45;100.00;100179.66;10372605;28;20041;-58
2024/01/01 14:36:16;;;;;;;6.85;1.60;;;;;;;8.41;100.00;100181.50;10399516;28;20596;-59
2024/01/01 14:41:38;;;;;;;7.95;1.80;;;;;;;8.40;100.00;100205.59;10382295;28;20470;-60
2024/01/01 14:47:01;;;;;;;9.98;1.80;;;;;;;8.40;100.00;100200.44;10357158;28;20046;-60
2024/01/01 14:52:22;;;;;;;8.32;1.77;;;;;;;8.39;100.00;100203.88;10349789;28;20072;-60
2024/01/01 14:57:44;;;;;;;8.95;1.80;;;;;;;8.40;100.00;100218.47;10360499;28;20054;-59
2024/01/01 15:03:06;;;;;;;8.88;1.67;;;;;;;8.40;100.00;100223.63;10379653;28;20061;-60
2024/01/01 15:08:31;;;;;;;11.13;2.05;;;;;;;8.35;100.00;100222.91;10351617;28;20052;-59
2024/01/01 15:13:53;;;;;;;9.07;1.97;;;;;;;8.34;100.00;100230.69;10365978;28;20060;-60
2024/01/01 15:19:18;;;;;;;6.57;1.85;;;;;;;8.28;100.00;100226.56;10368915;28;20057;-60
2024/01/01 15:24:41;;;;;;;10.55;2.30;;;;;;;8.25;100.00;100249.03;10397691;28;20499;-60
2024/01/01 15:30:03;;;;;;;6.78;1.60;;;;;;;8.22;100.00;100256.81;10384488;28;20054;-59
2024/01/01 15:35:25;;;;;;;10.30;1.70;;;;;;;8.16;100.00;100265.56;10376779;28;20062;-59
2024/01/01 15:40:47;;;;;;;7.03;1.55;;;;;;;8.15;100.00;100267.31;10374111;28;20096;-59
2024/01/01 15:46:09;;;;;;;10.43;2.03;;;;;;;8.13;100.00;100268.22;10359013;28;20049;-60
2024/01/01 15:51:31;;;;;;;7.95;1.90;;;;;;;8.12;100.00;100266.53;10363159;28;20053;-60
2024/01/01 15:57:00;;;;;;;9.52;2.10;;;;;;;8.22;100.00;100286.03;10365362;28;20057;-60
2024/01/01 16:02:22;;;;;;;11.57;1.80;;;;;;;8.26;100.00;100284.22;10358760;28;20133;-58
2024/01/01 16:07:44;;;;;;;8.27;1.70;;;;;;;8.20;100.00;100285.22;10361355;28;20061;-61
2024/01/01 16:13:05;;;;;;;8.80;1.83;;;;;;;8.16;100.00;100288.75;10376234;28;20072;-59
2024/01/01 16:18:28;;;;;;;8.85;1.70;;;;;;;8.13;100.00;100302.56;10354208;28;20046;-62
2024/01/01 16:23:50;;;;;;;9.95;2.00;;;;;;;8.13;99.74;100304.28;10360632;28;20050;-59
2024/01/01 16:29:12;;;;;;;15.80;2.10;;;;;;;8.12;100.00;100320.66;10363540;28;20057;-60
2024/01/01 16:34:38;;;;;;;10.07;2.37;;;;;;;8.07;100.00;100327.69;10364463;28;20173;-60
2024/01/01 16:39:59;;;;;;;8.85;1.98;;;;;;;8.06;100.00;100328.53;10372247;28;20065;-59
2024/01/01 16:45:22;;;;;;;5.22;1.98;;;;;;;8.10;99.45;100332.72;10382495;28;20414;-59
2024/01/01 16:50:47;;;;;;;11.90;1.92;;;;;;;8.09;99.83;100333.63;10356497;28;20418;-59
2024/01/01 16:56:09;;;;;;;8.57;1.83;;;;;;;8.06;100.00;100329.41;10376095;28;20054;-59
2024/01/01 17:01:30;;;;;;;13.55;2.05;;;;;;;8.07;100.00;100340.56;10324090;28;20053;-60
2024/01/01 17:06:52;;;;;;;8.00;1.90;;;;;;;8.01;100.00;100346.72;10318861;28;20499;-60
2024/01/01 17:12:14;;;;;;;8.23;1.60;;;;;;;7.97;100.00;100355.41;10317788;28;20087;-59
2024/01/01 17:17:35;;;;;;;12.02;1.88;;;;;;;7.98;100.00;100366.56;10327214;28;20537;-60
2024/01/01 17:22:57;;;;;;;8.43;1.65;;;;;;;7.96;100.00;100360.63;10331595;28;20053;-59
2024/01/01 17:28:26;;;;;;;9.50;1.80;;;;;;;7.94;100.00;100370.97;10318686;28;20101;-60
2024/01/01 17:33:48;;;;;;;10.48;1.65;;;;;;;7.93;100.00;100383.88;10338551;28;20102;-60
2024/01/01 17:39:10;;;;;;;10.63;1.88;;;;;;;7.88;100.00;100375.41;10316871;28;20045;-60
2024/01/01 17:44:31;;;;;;;10.30;2.08;;;;;;;7.84;100.00;100378.94;10340848;28;20050;-59
2024/01/01 17:49:53;;;;;;;5.18;1.95;;;;;;;7.80;100.00;100387.66;10331592;28;20057;-60
2024/01/01 17:55:15;;;;;;;8.80;2.30;;;;;;;7.78;100.00;100385.09;10341140;28;20058;-59
2024/01/01 18:00:36;;;;;;;9.60;2.38;;;;;;;7.75;100.00;100382.63;10329887;28;20064;-60
2024/01/01 18:05:58;;;;;;;8.00;1.90;;;;;;;7.69;100.00;100390.50;10333406;28;20195;-60
2024/01/01 18:11:20;;;;;;;8.07;2.00;;;;;;;7.71;100.00;100393.06;10328104;28;20054;-61
2024/01/01 18:16:44;;;;;;;6.82;1.80;;;;;;;7.67;100.00;100392.25;10343456;28;20045;-60
2024/01/01 18:22:06;;;;;;;7.75;2.35;;;;;;;7.66;100.00;100410.34;10332330;28;20057;-61
2024/01/01 18:27:28;;;;;;;10.10;2.92;;;;;;;7.66;100.00;100418.06;10334321;28;20042;-60
2024/01/01 18:32:50;;;;;;;7.45;2.30;;;;;;;7.63;100.00;100416.41;10321097;28;20205;-60
2024/01/01 18:38:12;;;;;;;11.70;2.58;;;;;;;7.59;100.00;100416.53;10336569;28;20086;-60
2024/01/01 18:43:33;;;;;;;10.52;2.50;;;;;;;7.56;100.00;100444.94;10337458;28;20052;-60
2024/01/01 18:48:55;;;;;;;17.25;2.80;;;;;;;7.54;100.00;100433.81;10318169;28;20102;-60
2024/01/01 18:54:19;;;;;;;12.02;2.25;;;;;;;7.46;100.00;100443.44;10328980;28;20072;-60
2024/01/01 18:59:41;;;;;;;11.80;2.75;;;;;;;7.41;100.00;100451.28;10337285;28;20501;-60
2024/01/01 19:05:03;;;;;;;14.65;2.97;;;;;;;7.41;100.00;100453.00;10335694;28;20046;-60
2024/01/01 19:10:26;;;;;;;13.48;2.25;;;;;;;7.41;100.00;100456.44;10329953;28;20054;-60
2024/01/01 19:15:48;;;;;;;9.32;2.30;;;;;;;7.38;100.00;100447.94;10322742;28;20058;-60
2024/01/01 19:21:10;;;;;;;10.00;2.33;;;;;;;7.41;100.00;100453.84;10324241;28;20041;-60
2024/01/01 19:26:31;;;;;;;16.48;3.38;;;;;;;7.39;100.00;100454.75;10286300;28;20053;-59
2024/01/01 19:31:53;;;;;;;14.55;2.60;;;;;;;7.38;100.00;100460.81;10329491;28;20046;-59
2024/01/01 19:37:16;;;;;;;13.10;2.78;;;;;;;7.36;100.00;100467.72;10338436;28;20092;-59
2024/01/01 19:42:37;;;;;;;10.93;2.28;;;;;;;7.34;100.00;100464.31;10332605;28;20141;-59
2024/01/01 19:47:59;;;;;;;16.02;2.70;;;;;;;7.33;100.00;100466.03;10328280;28;20728;-59
2024/01/01 19:53:21;;;;;;;13.75;2.75;;;;;;;7.36;100.00;100465.13;10306757;28;20054;-59
2024/01/01 19:58:48;;;;;;;11.45;2.92;;;;;;;7.38;100.00;100463.38;10319122;28;20068;-59
2024/01/01 20:04:12;;;;;;;19.85;3.15;;;;;;;7.40;100.00;100464.19;10310913;28;20046;-60
2024/01/01 20:09:34;;;;;;;17.25;2.95;;;;;;;7.42;100.00;100467.53;10337663;28;20060;-59
2024/01/01 20:14:56;;;;;;;17.48;2.92;;;;;;;7.42;100.00;100468.41;10326474;28;20046;-59
2024/01/01 20:20:18;;;;;;;17.25;3.45;;;;;;;7.42;100.00;100462.41;10315763;28;20103;-59
2024/01/01 20:25:43;;;;;;;19.60;3.17;;;;;;;7.40;100.00;100462.44;10313279;28;20046;-59
2024/01/01 20:31:04;;;;;;;20.35;3.10;;;;;;;7.39;100.00;100452.19;10322238;28;20050;-59
2024/01/01 20:36:26;;;;;;;18.75;3.25;;;;;;;7.35;100.00;100450.56;10309450;28;20195;-60
2024/01/01 20:41:48;;;;;;;24.13;3.92;;;;;;;7.31;100.00;100454.09;10315477;28;20073;-60
2024/01/01 20:47:12;;;;;;;26.48;4.00;;;;;;;7.31;100.00;100454.09;10327850;28;20066;-59
2024/01/01 20:52:34;;;;;;;20.52;3.72;;;;;;;7.22;100.00;100451.72;10335842;28;20148;-61
2024/01/01 20:58:06;;;;;;;20.83;3.50;;;;;;;7.15;100.00;100453.59;10341248;28;20172;-59
2024/01/01 21:03:28;;;;;;;20.40;4.22;;;;;;;7.13;100.00;100456.22;10331824;28;20050;-59
2024/01/01 21:08:50;;;;;;;25.75;4.05;;;;;;;7.10;100.00;100451.09;10358710;28;20060;-59
2024/01/01 21:14:12;;;;;;;23.63;3.80;;;;;;;7.02;100.00;100445.31;10353102;28;20054;-59
2024/01/01 21:19:33;;;;;;;23.88;3.95;;;;;;;6.97;100.00;100446.28;10374086;28;20054;-60
2024/01/01 21:24:56;;;;;;;23.35;4.78;;;;;;;6.98;100.00;100443.66;10338653;28;20046;-59
2024/01/01 21:30:18;;;;;;;28.10;4.88;;;;;;;6.92;100.00;100451.50;10350298;28;20069;-59
2024/01/01 21:35:39;;;;;;;23.42;4.70;;;;;;;6.93;100.00;100457.50;10347649;28;20529;-59
2024/01/01 21:41:02;;;;;;;28.30;5.10;;;;;;;6.89;100.00;100454.16;10353731;28;20383;-59
2024/01/01 21:46:24;;;;;;;24.88;5.53;;;;;;;6.89;100.00;100455.88;10342937;28;20112;-59
2024/01/01 21:51:46;;;;;;;21.73;4.90;;;;;;;6.90;100.00;100448.13;10337240;28;20157;-59
2024/01/01 21:57:08;;;;;;;23.42;4.72;;;;;;;6.85;100.00;100459.38;10351060;28;20053;-59
2024/01/01 22:02:29;;;;;;;23.52;5.28;;;;;;;6.84;100.00;100457.69;10341971;28;20057;-59
2024/01/01 22:07:52;;;;;;;30.17;6.00;;;;;;;6.81;100.00;100462.91;10353400;28;20486;-59
2024/01/01 22:13:14;;;;;;;31.88;5.93;;;;;;;6.79;100.00;100459.53;10361927;28;20049;-59
2024/01/01 22:18:36;;;;;;;23.85;5.68;;;;;;;6.77;100.00;100456.13;10348587;28;20133;-59
2024/01/01 22:23:57;;;;;;;25.92;5.88;;;;;;;6.75;100.00;100458.75;10347303;28;20050;-58
2024/01/01 22:29:19;;;;;;;21.23;5.18;;;;;;;6.76;100.00;100450.16;10349098;28;20072;-59
2024/01/01 22:34:41;;;;;;;25.77;5.93;;;;;;;6.77;100.00;100444.16;10352904;28;20052;-58
2024/01/01 22:40:04;;;;;;;29.73;6.03;;;;;;;6.73;100.00;100428.78;10337675;28;20184;-58
2024/01/01 22:45:25;;;;;;;31.55;5.88;;;;;;;6.72;100.00;100427.13;10338732;28;20039;-60
2024/01/01 22:50:47;;;;;;;26.33;5.25;;;;;;;6.72;100.00;100422.81;10346213;28;20054;-59
2024/01/01 22:56:08;;;;;;;26.13;5.30;;;;;;;6.72;100.00;100427.13;10344228;28;20057;-59
2024/01/01 23:01:30;;;;;;;23.45;5.57;;;;;;;6.72;100.00;100407.38;10348287;28;20054;-59
2024/01/01 23:06:52;;;;;;;30.83;5.50;;;;;;;6.71;100.00;100395.41;10338977;28;20039;-59
2024/01/01 23:12:13;;;;;;;27.55;5.00;;;;;;;6.73;100.00;100385.09;10348051;28;20045;-59
2024/01/01 23:17:35;;;;;;;21.10;4.53;;;;;;;6.71;100.00;100374.00;10333507;28;20120;-59
2024/01/01 23:22:57;;;;;;;17.58;4.28;;;;;;;6.69;100.00;100376.59;10344379;28;20057;-59
2024/01/01 23:28:21;;;;;;;15.30;4.05;;;;;;;6.67;100.00;100368.06;10344191;28;20405;-60
2024/01/01 23:33:42;;;;;;;17.83;4.68;;;;;;;6.68;100.00;100359.50;10342621;28;20054;-58
2024/01/01 23:39:04;;;;;;;19.17;4.70;;;;;;;6.69;100.00;100371.47;10351095;28;20054;-60
2024/01/01 23:44:26;;;;;;;21.15;4.30;;;;;;;6.63;100.00;100357.91;10349762;28;20054;-58
2024/01/01 23:49:47;;;;;;;16.92;4.20;;;;;;;6.62;100.00;100344.19;10348571;28;20524;-59
2024/01/01 23:55:09;;;;;;;23.80;4.80;;;;;;;6.61;100.00;100336.53;10344164;28;20090;-58
